El Paso, IL

4:36 PM CDT on September 30, 2014 (GMT -0500)
Pontiac Municipal | Change Station
CLOSE
Current Station
Airport
Location: Pontiac,
Elevation: 659 ft
Nearby Weather Stations

Elev 659 ft 40.92 °N, 88.62 °W | Updated 21 minutes ago

Clear
Clear
66 °F
Feels Like 66 °F
N
8
Wind Variable Wind from NE

Today
High -- | Low -- °F
--% Chance of Precip.
Yesterday
High -- | Low -- °F
Precip. -- in
6:51 AM 6:39 PM
Waxing Crescent, 40% visible
Pressure 29.97 in
Visibility 10.0 miles
Clouds Clear
Dew Point 48 °F
Humidity 52%
Rainfall 0.00 in
Snow Depth Not available.
UV 2 out of 12
Pollen 4.70 out of 12
Ozone Good
PM2.5 Good
Flu Activity Not available.
METAR KPNT 302115Z AUTO 04007KT 10SM CLR 19/09 A2997 RMK AO2

More Conditions Fewer Conditions

Pressure 29.97 in
Visibility 10.0 miles
Clouds Clear
Dew Point 48 °F
Humidity 52%
Rainfall 0.00 in
Snow Depth Not available.
UV 2 out of 12
Pollen 4.70 out of 12
Ozone Good
PM2.5 Good
Flu Activity Not available.
METAR KPNT 302115Z AUTO 04007KT 10SM CLR 19/09 A2997 RMK AO2

More Conditions Fewer Conditions

10-Day Weather Forecast

Almanac

Astronomy

Sep. 30, 2014 Rise Set
Actual Time 6:51 AM CDT 6:39 PM CDT
Civil Twilight 6:24 AM CDT 7:07 PM CDT
Nautical Twilight 5:52 AM CDT 7:38 PM CDT
Astronomical Twilight 5:20 AM CDT 8:10 PM CDT
Moon 1:01 PM CDT 11:08 PM CDT
Length of Visible Light 12h 42m
Length of Day
11h 48m
Tomorrow will be 2m 40s shorter.
Waxing Crescent, 40% of the Moon is Illuminated
Today
Waxing Crescent
Oct 1
First Quarter
Oct 8
Full
Oct 15
Last Quarter
Oct 23
New

Today's Extremes

State Highs State Lows

Community

WunderPhotos

Upload Photos

1,757,755 photos uploaded!

Nearby

Air Quality

  Air Quality AQ Index Pollutant
Yesterday Moderate
PM2.5
Yesterday Good
OZONE
Current Good
PM2.5
Current Good
OZONE
Tuesday Good
PM2.5
Wednesday Moderate
PM2.5
Thursday Moderate
PM2.5
Friday Good
PM2.5
Saturday Good
PM2.5

Snow Depth

Station Depth Elevation
No new snow has been reported.

Earthquake Activity

City Distance Mag. Time & Date
No recent earthquake activity has been reported nearby.
Minimum magnitude displayed is 2.5.

Coastal Water Temperatures

Place Temperature
No Stations Reporting

Nearby Weather Stations